sensor_id;sensor_type;location;lat;lon;timestamp;P1;durP1;ratioP1;P2;durP2;ratioP2
17091;SDS011;8661;45.700;4.880;2023-11-18T00:01:04;21.57;;;13.83;;
17091;SDS011;8661;45.700;4.880;2023-11-18T00:03:31;20.10;;;13.27;;
17091;SDS011;8661;45.700;4.880;2023-11-18T00:05:58;19.17;;;13.00;;
17091;SDS011;8661;45.700;4.880;2023-11-18T00:08:25;22.13;;;13.27;;
17091;SDS011;8661;45.700;4.880;2023-11-18T00:10:53;21.20;;;12.17;;
17091;SDS011;8661;45.700;4.880;2023-11-18T00:13:20;19.90;;;12.80;;
17091;SDS011;8661;45.700;4.880;2023-11-18T00:15:47;17.67;;;12.40;;
17091;SDS011;8661;45.700;4.880;2023-11-18T00:18:14;20.70;;;12.77;;
17091;SDS011;8661;45.700;4.880;2023-11-18T00:20:41;18.67;;;11.67;;
17091;SDS011;8661;45.700;4.880;2023-11-18T00:23:08;19.80;;;12.57;;
17091;SDS011;8661;45.700;4.880;2023-11-18T00:25:34;18.20;;;10.87;;
17091;SDS011;8661;45.700;4.880;2023-11-18T00:28:06;19.10;;;11.30;;
17091;SDS011;8661;45.700;4.880;2023-11-18T00:30:33;17.87;;;11.60;;
17091;SDS011;8661;45.700;4.880;2023-11-18T00:33:00;16.40;;;11.17;;
17091;SDS011;8661;45.700;4.880;2023-11-18T00:35:27;16.70;;;11.33;;
17091;SDS011;8661;45.700;4.880;2023-11-18T00:37:55;15.53;;;10.23;;
17091;SDS011;8661;45.700;4.880;2023-11-18T00:40:23;14.77;;;10.70;;
17091;SDS011;8661;45.700;4.880;2023-11-18T00:42:50;18.03;;;10.53;;
17091;SDS011;8661;45.700;4.880;2023-11-18T00:45:18;15.67;;;10.10;;
17091;SDS011;8661;45.700;4.880;2023-11-18T00:47:45;16.13;;;10.90;;
17091;SDS011;8661;45.700;4.880;2023-11-18T00:50:13;16.27;;;11.47;;
17091;SDS011;8661;45.700;4.880;2023-11-18T00:52:40;20.40;;;11.20;;
17091;SDS011;8661;45.700;4.880;2023-11-18T00:55:08;16.43;;;11.33;;
17091;SDS011;8661;45.700;4.880;2023-11-18T00:57:36;16.33;;;10.47;;
17091;SDS011;8661;45.700;4.880;2023-11-18T01:00:04;16.47;;;11.47;;
17091;SDS011;8661;45.700;4.880;2023-11-18T01:02:33;17.13;;;11.53;;
17091;SDS011;8661;45.700;4.880;2023-11-18T01:05:00;20.10;;;11.33;;
17091;SDS011;8661;45.700;4.880;2023-11-18T01:07:27;18.80;;;11.20;;
17091;SDS011;8661;45.700;4.880;2023-11-18T01:09:54;16.73;;;11.33;;
17091;SDS011;8661;45.700;4.880;2023-11-18T01:12:21;14.90;;;10.40;;
17091;SDS011;8661;45.700;4.880;2023-11-18T01:14:48;14.43;;;9.97;;
17091;SDS011;8661;45.700;4.880;2023-11-18T01:17:15;16.33;;;10.57;;
17091;SDS011;8661;45.700;4.880;2023-11-18T01:19:43;13.80;;;9.57;;
17091;SDS011;8661;45.700;4.880;2023-11-18T01:22:10;16.30;;;9.87;;
17091;SDS011;8661;45.700;4.880;2023-11-18T01:24:37;15.80;;;9.80;;
17091;SDS011;8661;45.700;4.880;2023-11-18T01:27:04;12.67;;;9.20;;
17091;SDS011;8661;45.700;4.880;2023-11-18T01:29:32;15.17;;;9.80;;
17091;SDS011;8661;45.700;4.880;2023-11-18T01:31:59;16.03;;;9.83;;
17091;SDS011;8661;45.700;4.880;2023-11-18T01:34:33;12.87;;;8.67;;
17091;SDS011;8661;45.700;4.880;2023-11-18T01:37:03;13.83;;;9.57;;
17091;SDS011;8661;45.700;4.880;2023-11-18T01:39:32;13.70;;;8.90;;
17091;SDS011;8661;45.700;4.880;2023-11-18T01:41:59;14.33;;;8.70;;
17091;SDS011;8661;45.700;4.880;2023-11-18T01:44:26;14.43;;;9.33;;
17091;SDS011;8661;45.700;4.880;2023-11-18T01:46:54;13.67;;;9.27;;
17091;SDS011;8661;45.700;4.880;2023-11-18T01:49:21;14.00;;;9.23;;
17091;SDS011;8661;45.700;4.880;2023-11-18T01:51:49;12.03;;;9.20;;
17091;SDS011;8661;45.700;4.880;2023-11-18T01:54:19;13.37;;;9.20;;
17091;SDS011;8661;45.700;4.880;2023-11-18T01:56:48;15.03;;;9.30;;
17091;SDS011;8661;45.700;4.880;2023-11-18T01:59:17;13.83;;;9.27;;
17091;SDS011;8661;45.700;4.880;2023-11-18T02:01:45;15.37;;;8.90;;
17091;SDS011;8661;45.700;4.880;2023-11-18T02:04:15;13.67;;;9.07;;
17091;SDS011;8661;45.700;4.880;2023-11-18T02:06:44;13.57;;;9.27;;
17091;SDS011;8661;45.700;4.880;2023-11-18T02:09:13;14.87;;;8.67;;
17091;SDS011;8661;45.700;4.880;2023-11-18T02:11:44;13.63;;;9.17;;
17091;SDS011;8661;45.700;4.880;2023-11-18T02:14:20;13.97;;;8.43;;
17091;SDS011;8661;45.700;4.880;2023-11-18T02:16:49;12.77;;;8.73;;
17091;SDS011;8661;45.700;4.880;2023-11-18T02:19:19;14.93;;;9.50;;
17091;SDS011;8661;45.700;4.880;2023-11-18T02:21:47;13.17;;;8.80;;
17091;SDS011;8661;45.700;4.880;2023-11-18T02:24:25;15.20;;;9.03;;
17091;SDS011;8661;45.700;4.880;2023-11-18T02:26:56;15.53;;;9.43;;
17091;SDS011;8661;45.700;4.880;2023-11-18T02:29:23;12.40;;;8.90;;
17091;SDS011;8661;45.700;4.880;2023-11-18T02:31:52;14.90;;;11.07;;
17091;SDS011;8661;45.700;4.880;2023-11-18T02:34:24;15.13;;;10.13;;
17091;SDS011;8661;45.700;4.880;2023-11-18T02:36:59;14.30;;;9.47;;
17091;SDS011;8661;45.700;4.880;2023-11-18T02:39:37;15.17;;;9.40;;
17091;SDS011;8661;45.700;4.880;2023-11-18T02:42:09;11.30;;;9.13;;
17091;SDS011;8661;45.700;4.880;2023-11-18T02:44:38;14.03;;;9.20;;
17091;SDS011;8661;45.700;4.880;2023-11-18T02:47:06;11.80;;;8.83;;
17091;SDS011;8661;45.700;4.880;2023-11-18T02:49:34;13.57;;;9.00;;
17091;SDS011;8661;45.700;4.880;2023-11-18T02:52:01;12.60;;;9.43;;
17091;SDS011;8661;45.700;4.880;2023-11-18T02:54:28;13.30;;;9.33;;
17091;SDS011;8661;45.700;4.880;2023-11-18T02:56:55;13.57;;;8.40;;
17091;SDS011;8661;45.700;4.880;2023-11-18T02:59:25;12.97;;;9.07;;
17091;SDS011;8661;45.700;4.880;2023-11-18T03:01:55;13.97;;;9.00;;
17091;SDS011;8661;45.700;4.880;2023-11-18T03:04:22;13.77;;;8.70;;
17091;SDS011;8661;45.700;4.880;2023-11-18T03:06:50;15.93;;;9.53;;
17091;SDS011;8661;45.700;4.880;2023-11-18T03:09:16;15.30;;;9.93;;
17091;SDS011;8661;45.700;4.880;2023-11-18T03:11:44;13.70;;;10.20;;
17091;SDS011;8661;45.700;4.880;2023-11-18T03:14:11;12.90;;;10.53;;
17091;SDS011;8661;45.700;4.880;2023-11-18T03:16:41;17.03;;;10.93;;
17091;SDS011;8661;45.700;4.880;2023-11-18T03:19:08;14.93;;;10.40;;
17091;SDS011;8661;45.700;4.880;2023-11-18T03:21:35;14.90;;;9.97;;
17091;SDS011;8661;45.700;4.880;2023-11-18T03:24:04;15.07;;;9.90;;
17091;SDS011;8661;45.700;4.880;2023-11-18T03:26:31;13.93;;;10.07;;
17091;SDS011;8661;45.700;4.880;2023-11-18T03:28:58;17.37;;;13.20;;
17091;SDS011;8661;45.700;4.880;2023-11-18T03:31:28;15.93;;;13.60;;
17091;SDS011;8661;45.700;4.880;2023-11-18T03:33:56;19.37;;;12.63;;
17091;SDS011;8661;45.700;4.880;2023-11-18T03:36:24;17.30;;;12.30;;
17091;SDS011;8661;45.700;4.880;2023-11-18T03:38:50;18.00;;;13.60;;
17091;SDS011;8661;45.700;4.880;2023-11-18T03:41:18;17.17;;;14.37;;
17091;SDS011;8661;45.700;4.880;2023-11-18T03:43:48;14.10;;;11.27;;
17091;SDS011;8661;45.700;4.880;2023-11-18T03:46:16;13.83;;;9.87;;
17091;SDS011;8661;45.700;4.880;2023-11-18T03:48:43;18.53;;;11.30;;
17091;SDS011;8661;45.700;4.880;2023-11-18T03:51:12;14.73;;;10.77;;
17091;SDS011;8661;45.700;4.880;2023-11-18T03:53:41;15.13;;;11.13;;
17091;SDS011;8661;45.700;4.880;2023-11-18T03:56:09;14.77;;;10.97;;
17091;SDS011;8661;45.700;4.880;2023-11-18T03:58:36;16.43;;;10.97;;
17091;SDS011;8661;45.700;4.880;2023-11-18T04:01:04;16.33;;;10.80;;
17091;SDS011;8661;45.700;4.880;2023-11-18T04:03:31;14.27;;;10.13;;
17091;SDS011;8661;45.700;4.880;2023-11-18T04:05:58;15.07;;;10.57;;
17091;SDS011;8661;45.700;4.880;2023-11-18T04:08:26;15.27;;;10.17;;
17091;SDS011;8661;45.700;4.880;2023-11-18T04:10:53;15.50;;;9.73;;
17091;SDS011;8661;45.700;4.880;2023-11-18T04:13:20;13.90;;;9.97;;
17091;SDS011;8661;45.700;4.880;2023-11-18T04:15:50;12.90;;;9.53;;
17091;SDS011;8661;45.700;4.880;2023-11-18T04:18:17;14.50;;;9.57;;
17091;SDS011;8661;45.700;4.880;2023-11-18T04:20:44;14.93;;;9.77;;
17091;SDS011;8661;45.700;4.880;2023-11-18T04:23:11;12.90;;;9.43;;
17091;SDS011;8661;45.700;4.880;2023-11-18T04:25:40;16.33;;;9.40;;
17091;SDS011;8661;45.700;4.880;2023-11-18T04:28:07;15.80;;;9.87;;
17091;SDS011;8661;45.700;4.880;2023-11-18T04:30:35;12.77;;;10.03;;
17091;SDS011;8661;45.700;4.880;2023-11-18T04:33:03;15.73;;;10.57;;
17091;SDS011;8661;45.700;4.880;2023-11-18T04:35:30;12.80;;;9.17;;
17091;SDS011;8661;45.700;4.880;2023-11-18T04:37:59;15.80;;;9.57;;
17091;SDS011;8661;45.700;4.880;2023-11-18T04:40:26;15.50;;;10.70;;
17091;SDS011;8661;45.700;4.880;2023-11-18T04:42:55;16.00;;;10.83;;
17091;SDS011;8661;45.700;4.880;2023-11-18T04:45:21;16.00;;;11.00;;
17091;SDS011;8661;45.700;4.880;2023-11-18T04:47:48;19.57;;;12.80;;
17091;SDS011;8661;45.700;4.880;2023-11-18T04:50:16;20.43;;;15.07;;
17091;SDS011;8661;45.700;4.880;2023-11-18T04:52:43;19.47;;;15.27;;
17091;SDS011;8661;45.700;4.880;2023-11-18T04:55:10;20.23;;;15.03;;
17091;SDS011;8661;45.700;4.880;2023-11-18T04:57:39;18.80;;;14.40;;
17091;SDS011;8661;45.700;4.880;2023-11-18T05:00:08;19.07;;;14.37;;
17091;SDS011;8661;45.700;4.880;2023-11-18T05:02:36;20.73;;;13.73;;
17091;SDS011;8661;45.700;4.880;2023-11-18T05:05:03;19.13;;;13.57;;
17091;SDS011;8661;45.700;4.880;2023-11-18T05:07:31;17.00;;;12.00;;
17091;SDS011;8661;45.700;4.880;2023-11-18T05:09:59;20.33;;;13.63;;
17091;SDS011;8661;45.700;4.880;2023-11-18T05:12:26;16.83;;;12.67;;
17091;SDS011;8661;45.700;4.880;2023-11-18T05:14:54;16.23;;;12.50;;
17091;SDS011;8661;45.700;4.880;2023-11-18T05:17:22;17.47;;;12.53;;
17091;SDS011;8661;45.700;4.880;2023-11-18T05:19:51;14.97;;;12.30;;
17091;SDS011;8661;45.700;4.880;2023-11-18T05:22:18;15.33;;;11.90;;
17091;SDS011;8661;45.700;4.880;2023-11-18T05:24:46;15.27;;;11.13;;
17091;SDS011;8661;45.700;4.880;2023-11-18T05:27:14;16.03;;;11.30;;
17091;SDS011;8661;45.700;4.880;2023-11-18T05:29:42;16.87;;;10.90;;
17091;SDS011;8661;45.700;4.880;2023-11-18T05:32:10;19.53;;;11.40;;
17091;SDS011;8661;45.700;4.880;2023-11-18T05:34:38;12.83;;;9.37;;
17091;SDS011;8661;45.700;4.880;2023-11-18T05:37:06;12.40;;;9.50;;
17091;SDS011;8661;45.700;4.880;2023-11-18T05:39:32;13.87;;;9.10;;
17091;SDS011;8661;45.700;4.880;2023-11-18T05:42:07;15.03;;;9.17;;
17091;SDS011;8661;45.700;4.880;2023-11-18T05:44:35;16.70;;;9.47;;
17091;SDS011;8661;45.700;4.880;2023-11-18T05:47:04;11.43;;;8.63;;
17091;SDS011;8661;45.700;4.880;2023-11-18T05:49:32;13.73;;;8.73;;
17091;SDS011;8661;45.700;4.880;2023-11-18T05:52:00;18.00;;;9.87;;
17091;SDS011;8661;45.700;4.880;2023-11-18T05:54:27;11.80;;;8.03;;
17091;SDS011;8661;45.700;4.880;2023-11-18T05:56:54;14.13;;;8.67;;
17091;SDS011;8661;45.700;4.880;2023-11-18T05:59:23;14.47;;;8.60;;
17091;SDS011;8661;45.700;4.880;2023-11-18T06:01:49;13.20;;;8.53;;
17091;SDS011;8661;45.700;4.880;2023-11-18T06:04:16;10.97;;;8.27;;
17091;SDS011;8661;45.700;4.880;2023-11-18T06:06:43;12.47;;;8.00;;
17091;SDS011;8661;45.700;4.880;2023-11-18T06:09:11;9.63;;;7.73;;
17091;SDS011;8661;45.700;4.880;2023-11-18T06:11:45;13.47;;;9.23;;
17091;SDS011;8661;45.700;4.880;2023-11-18T06:14:14;13.13;;;8.40;;
17091;SDS011;8661;45.700;4.880;2023-11-18T06:16:42;13.17;;;8.63;;
17091;SDS011;8661;45.700;4.880;2023-11-18T06:19:09;13.43;;;8.60;;
17091;SDS011;8661;45.700;4.880;2023-11-18T06:21:36;15.60;;;8.77;;
17091;SDS011;8661;45.700;4.880;2023-11-18T06:24:03;19.70;;;9.17;;
17091;SDS011;8661;45.700;4.880;2023-11-18T06:26:33;10.83;;;8.47;;
17091;SDS011;8661;45.700;4.880;2023-11-18T06:29:04;13.70;;;8.87;;
17091;SDS011;8661;45.700;4.880;2023-11-18T06:31:31;10.60;;;8.40;;
17091;SDS011;8661;45.700;4.880;2023-11-18T06:33:59;11.57;;;7.93;;
17091;SDS011;8661;45.700;4.880;2023-11-18T06:36:27;13.07;;;8.13;;
17091;SDS011;8661;45.700;4.880;2023-11-18T06:38:56;11.00;;;8.47;;
17091;SDS011;8661;45.700;4.880;2023-11-18T06:41:27;11.40;;;8.70;;
17091;SDS011;8661;45.700;4.880;2023-11-18T06:44:00;14.80;;;8.40;;
17091;SDS011;8661;45.700;4.880;2023-11-18T06:46:34;12.27;;;8.40;;
17091;SDS011;8661;45.700;4.880;2023-11-18T06:49:05;13.00;;;8.27;;
17091;SDS011;8661;45.700;4.880;2023-11-18T06:51:35;12.60;;;7.77;;
17091;SDS011;8661;45.700;4.880;2023-11-18T06:54:04;12.70;;;8.40;;
17091;SDS011;8661;45.700;4.880;2023-11-18T06:56:34;9.37;;;7.93;;
17091;SDS011;8661;45.700;4.880;2023-11-18T06:59:04;12.37;;;8.10;;
17091;SDS011;8661;45.700;4.880;2023-11-18T07:01:31;11.67;;;8.20;;
17091;SDS011;8661;45.700;4.880;2023-11-18T07:03:58;12.93;;;8.43;;
17091;SDS011;8661;45.700;4.880;2023-11-18T07:06:25;12.80;;;9.33;;
17091;SDS011;8661;45.700;4.880;2023-11-18T07:08:53;14.40;;;8.87;;
17091;SDS011;8661;45.700;4.880;2023-11-18T07:11:25;13.50;;;8.47;;
17091;SDS011;8661;45.700;4.880;2023-11-18T07:13:53;15.20;;;8.97;;
17091;SDS011;8661;45.700;4.880;2023-11-18T07:16:24;13.00;;;8.43;;
17091;SDS011;8661;45.700;4.880;2023-11-18T07:18:51;14.40;;;8.60;;
17091;SDS011;8661;45.700;4.880;2023-11-18T07:21:18;15.83;;;8.60;;
17091;SDS011;8661;45.700;4.880;2023-11-18T07:23:45;15.00;;;10.03;;
17091;SDS011;8661;45.700;4.880;2023-11-18T07:26:12;14.73;;;9.17;;
17091;SDS011;8661;45.700;4.880;2023-11-18T07:28:40;15.03;;;9.23;;
17091;SDS011;8661;45.700;4.880;2023-11-18T07:31:08;12.23;;;9.17;;
17091;SDS011;8661;45.700;4.880;2023-11-18T07:33:37;12.60;;;8.83;;
17091;SDS011;8661;45.700;4.880;2023-11-18T07:36:04;11.40;;;8.67;;
17091;SDS011;8661;45.700;4.880;2023-11-18T07:38:36;12.73;;;8.83;;
17091;SDS011;8661;45.700;4.880;2023-11-18T07:41:03;11.57;;;8.33;;
17091;SDS011;8661;45.700;4.880;2023-11-18T07:43:33;13.17;;;9.07;;
17091;SDS011;8661;45.700;4.880;2023-11-18T07:46:01;12.97;;;8.47;;
17091;SDS011;8661;45.700;4.880;2023-11-18T07:48:28;12.77;;;8.67;;
17091;SDS011;8661;45.700;4.880;2023-11-18T07:50:57;15.40;;;9.90;;
17091;SDS011;8661;45.700;4.880;2023-11-18T07:53:25;17.50;;;10.00;;
17091;SDS011;8661;45.700;4.880;2023-11-18T07:55:54;15.18;;;10.50;;
17091;SDS011;8661;45.700;4.880;2023-11-18T07:58:21;14.93;;;9.80;;
17091;SDS011;8661;45.700;4.880;2023-11-18T08:00:48;14.30;;;9.87;;
17091;SDS011;8661;45.700;4.880;2023-11-18T08:03:16;14.10;;;10.17;;
17091;SDS011;8661;45.700;4.880;2023-11-18T08:05:44;13.83;;;9.37;;
17091;SDS011;8661;45.700;4.880;2023-11-18T08:11:12;13.30;;;9.17;;
17091;SDS011;8661;45.700;4.880;2023-11-18T08:13:52;11.47;;;9.07;;
17091;SDS011;8661;45.700;4.880;2023-11-18T08:16:18;14.43;;;9.30;;
17091;SDS011;8661;45.700;4.880;2023-11-18T08:18:47;15.70;;;10.07;;
17091;SDS011;8661;45.700;4.880;2023-11-18T08:21:17;11.80;;;9.07;;
17091;SDS011;8661;45.700;4.880;2023-11-18T08:23:47;12.93;;;9.30;;
17091;SDS011;8661;45.700;4.880;2023-11-18T08:26:14;14.87;;;9.70;;
17091;SDS011;8661;45.700;4.880;2023-11-18T08:28:40;15.63;;;9.67;;
17091;SDS011;8661;45.700;4.880;2023-11-18T08:31:07;14.80;;;9.03;;
17091;SDS011;8661;45.700;4.880;2023-11-18T08:33:34;13.37;;;8.97;;
17091;SDS011;8661;45.700;4.880;2023-11-18T08:36:01;12.60;;;9.10;;
17091;SDS011;8661;45.700;4.880;2023-11-18T08:38:28;14.50;;;8.73;;
17091;SDS011;8661;45.700;4.880;2023-11-18T08:40:56;13.60;;;8.63;;
17091;SDS011;8661;45.700;4.880;2023-11-18T08:43:23;11.40;;;8.20;;
17091;SDS011;8661;45.700;4.880;2023-11-18T08:45:50;11.40;;;8.20;;
17091;SDS011;8661;45.700;4.880;2023-11-18T08:48:17;12.30;;;8.57;;
17091;SDS011;8661;45.700;4.880;2023-11-18T08:50:44;10.03;;;7.43;;
17091;SDS011;8661;45.700;4.880;2023-11-18T08:53:11;12.63;;;7.43;;
17091;SDS011;8661;45.700;4.880;2023-11-18T08:55:43;13.67;;;8.10;;
17091;SDS011;8661;45.700;4.880;2023-11-18T08:58:17;10.23;;;7.73;;
17091;SDS011;8661;45.700;4.880;2023-11-18T09:00:52;13.77;;;7.40;;
17091;SDS011;8661;45.700;4.880;2023-11-18T09:03:22;13.33;;;7.57;;
17091;SDS011;8661;45.700;4.880;2023-11-18T09:05:59;11.37;;;6.83;;
17091;SDS011;8661;45.700;4.880;2023-11-18T09:08:29;9.07;;;7.07;;
17091;SDS011;8661;45.700;4.880;2023-11-18T09:11:04;8.97;;;6.47;;
17091;SDS011;8661;45.700;4.880;2023-11-18T09:13:34;13.90;;;7.10;;
17091;SDS011;8661;45.700;4.880;2023-11-18T09:16:02;12.37;;;6.60;;
17091;SDS011;8661;45.700;4.880;2023-11-18T09:18:33;11.03;;;6.40;;
17091;SDS011;8661;45.700;4.880;2023-11-18T09:21:00;10.57;;;6.90;;
17091;SDS011;8661;45.700;4.880;2023-11-18T09:23:28;10.03;;;6.70;;
17091;SDS011;8661;45.700;4.880;2023-11-18T09:25:57;10.83;;;7.20;;
17091;SDS011;8661;45.700;4.880;2023-11-18T09:28:24;9.70;;;6.70;;
17091;SDS011;8661;45.700;4.880;2023-11-18T09:30:55;8.17;;;6.50;;
17091;SDS011;8661;45.700;4.880;2023-11-18T09:33:23;11.33;;;6.80;;
17091;SDS011;8661;45.700;4.880;2023-11-18T09:35:54;8.57;;;6.90;;
17091;SDS011;8661;45.700;4.880;2023-11-18T09:38:24;8.67;;;6.37;;
17091;SDS011;8661;45.700;4.880;2023-11-18T09:40:53;9.43;;;6.37;;
17091;SDS011;8661;45.700;4.880;2023-11-18T09:43:21;9.70;;;6.30;;
17091;SDS011;8661;45.700;4.880;2023-11-18T09:45:49;10.03;;;6.97;;
17091;SDS011;8661;45.700;4.880;2023-11-18T09:48:22;8.47;;;6.50;;
17091;SDS011;8661;45.700;4.880;2023-11-18T09:50:51;8.83;;;7.03;;
17091;SDS011;8661;45.700;4.880;2023-11-18T09:53:19;10.53;;;7.43;;
17091;SDS011;8661;45.700;4.880;2023-11-18T09:55:52;10.20;;;7.33;;
17091;SDS011;8661;45.700;4.880;2023-11-18T09:58:28;13.67;;;7.73;;
17091;SDS011;8661;45.700;4.880;2023-11-18T10:01:02;12.20;;;8.03;;
17091;SDS011;8661;45.700;4.880;2023-11-18T10:03:29;11.37;;;7.00;;
17091;SDS011;8661;45.700;4.880;2023-11-18T10:05:56;9.90;;;6.63;;
17091;SDS011;8661;45.700;4.880;2023-11-18T10:08:30;8.93;;;5.93;;
17091;SDS011;8661;45.700;4.880;2023-11-18T10:10:57;8.03;;;6.03;;
17091;SDS011;8661;45.700;4.880;2023-11-18T10:13:30;6.93;;;5.77;;
17091;SDS011;8661;45.700;4.880;2023-11-18T10:15:59;7.20;;;5.60;;
17091;SDS011;8661;45.700;4.880;2023-11-18T10:18:30;9.73;;;6.07;;
17091;SDS011;8661;45.700;4.880;2023-11-18T10:21:00;9.33;;;6.43;;
17091;SDS011;8661;45.700;4.880;2023-11-18T10:23:29;13.10;;;6.70;;
17091;SDS011;8661;45.700;4.880;2023-11-18T10:25:59;10.00;;;6.37;;
17091;SDS011;8661;45.700;4.880;2023-11-18T10:28:29;8.40;;;5.97;;
17091;SDS011;8661;45.700;4.880;2023-11-18T10:30:58;8.27;;;5.03;;
17091;SDS011;8661;45.700;4.880;2023-11-18T10:33:30;7.40;;;5.17;;
17091;SDS011;8661;45.700;4.880;2023-11-18T10:35:57;5.87;;;5.27;;
17091;SDS011;8661;45.700;4.880;2023-11-18T10:38:29;7.90;;;5.73;;
17091;SDS011;8661;45.700;4.880;2023-11-18T10:40:57;8.00;;;5.33;;
17091;SDS011;8661;45.700;4.880;2023-11-18T10:43:26;10.30;;;5.63;;
17091;SDS011;8661;45.700;4.880;2023-11-18T10:46:03;7.57;;;5.07;;
17091;SDS011;8661;45.700;4.880;2023-11-18T10:48:38;11.50;;;5.30;;
17091;SDS011;8661;45.700;4.880;2023-11-18T10:51:08;6.97;;;5.13;;
17091;SDS011;8661;45.700;4.880;2023-11-18T10:53:38;9.07;;;5.30;;
17091;SDS011;8661;45.700;4.880;2023-11-18T10:56:16;7.50;;;5.20;;
17091;SDS011;8661;45.700;4.880;2023-11-18T10:58:44;10.70;;;5.00;;
17091;SDS011;8661;45.700;4.880;2023-11-18T11:01:11;6.13;;;4.70;;
17091;SDS011;8661;45.700;4.880;2023-11-18T11:03:53;8.07;;;5.77;;
17091;SDS011;8661;45.700;4.880;2023-11-18T11:06:22;8.63;;;5.90;;
17091;SDS011;8661;45.700;4.880;2023-11-18T11:08:50;8.23;;;5.43;;
17091;SDS011;8661;45.700;4.880;2023-11-18T11:11:18;6.87;;;4.80;;
17091;SDS011;8661;45.700;4.880;2023-11-18T11:13:48;6.37;;;4.37;;
17091;SDS011;8661;45.700;4.880;2023-11-18T11:16:18;7.90;;;4.23;;
17091;SDS011;8661;45.700;4.880;2023-11-18T11:18:48;6.07;;;4.23;;
17091;SDS011;8661;45.700;4.880;2023-11-18T11:21:24;6.03;;;3.83;;
17091;SDS011;8661;45.700;4.880;2023-11-18T11:23:55;5.03;;;3.93;;
17091;SDS011;8661;45.700;4.880;2023-11-18T11:26:34;4.93;;;3.70;;
17091;SDS011;8661;45.700;4.880;2023-11-18T11:29:10;5.17;;;3.80;;
17091;SDS011;8661;45.700;4.880;2023-11-18T11:31:45;7.73;;;4.03;;
17091;SDS011;8661;45.700;4.880;2023-11-18T11:34:24;3.87;;;3.07;;
17091;SDS011;8661;45.700;4.880;2023-11-18T11:36:56;4.37;;;3.20;;
17091;SDS011;8661;45.700;4.880;2023-11-18T11:39:26;4.90;;;3.60;;
17091;SDS011;8661;45.700;4.880;2023-11-18T11:41:55;5.80;;;3.40;;
17091;SDS011;8661;45.700;4.880;2023-11-18T11:44:24;4.67;;;3.00;;
17091;SDS011;8661;45.700;4.880;2023-11-18T11:46:55;4.60;;;2.90;;
17091;SDS011;8661;45.700;4.880;2023-11-18T11:49:26;3.67;;;2.60;;
17091;SDS011;8661;45.700;4.880;2023-11-18T11:52:03;6.97;;;3.37;;
17091;SDS011;8661;45.700;4.880;2023-11-18T11:54:42;6.80;;;3.20;;
17091;SDS011;8661;45.700;4.880;2023-11-18T11:57:15;4.80;;;2.80;;
17091;SDS011;8661;45.700;4.880;2023-11-18T11:59:54;5.37;;;2.90;;
17091;SDS011;8661;45.700;4.880;2023-11-18T12:02:21;5.47;;;3.20;;
17091;SDS011;8661;45.700;4.880;2023-11-18T12:04:55;4.93;;;2.70;;
17091;SDS011;8661;45.700;4.880;2023-11-18T12:07:24;7.30;;;2.80;;
17091;SDS011;8661;45.700;4.880;2023-11-18T12:09:54;3.73;;;2.53;;
17091;SDS011;8661;45.700;4.880;2023-11-18T12:12:23;3.40;;;2.60;;
17091;SDS011;8661;45.700;4.880;2023-11-18T12:14:51;4.97;;;2.83;;
17091;SDS011;8661;45.700;4.880;2023-11-18T12:17:21;4.07;;;2.77;;
17091;SDS011;8661;45.700;4.880;2023-11-18T12:19:49;4.20;;;3.00;;
17091;SDS011;8661;45.700;4.880;2023-11-18T12:22:25;6.03;;;2.77;;
17091;SDS011;8661;45.700;4.880;2023-11-18T12:28:08;6.73;;;3.80;;
17091;SDS011;8661;45.700;4.880;2023-11-18T12:30:40;4.30;;;3.07;;
17091;SDS011;8661;45.700;4.880;2023-11-18T12:33:22;3.77;;;3.10;;
17091;SDS011;8661;45.700;4.880;2023-11-18T12:39:11;5.00;;;3.20;;
17091;SDS011;8661;45.700;4.880;2023-11-18T12:42:09;4.87;;;2.90;;
17091;SDS011;8661;45.700;4.880;2023-11-18T12:44:51;4.20;;;2.90;;
17091;SDS011;8661;45.700;4.880;2023-11-18T12:47:42;4.00;;;2.63;;
17091;SDS011;8661;45.700;4.880;2023-11-18T12:50:13;2.67;;;2.10;;
17091;SDS011;8661;45.700;4.880;2023-11-18T12:52:49;4.70;;;2.50;;
17091;SDS011;8661;45.700;4.880;2023-11-18T12:55:19;4.73;;;2.73;;
17091;SDS011;8661;45.700;4.880;2023-11-18T12:57:46;5.67;;;2.50;;
17091;SDS011;8661;45.700;4.880;2023-11-18T13:00:14;3.57;;;2.47;;
17091;SDS011;8661;45.700;4.880;2023-11-18T13:02:53;5.37;;;2.77;;
17091;SDS011;8661;45.700;4.880;2023-11-18T13:05:23;5.53;;;2.70;;
17091;SDS011;8661;45.700;4.880;2023-11-18T13:07:54;4.07;;;2.67;;
17091;SDS011;8661;45.700;4.880;2023-11-18T13:10:25;3.87;;;2.30;;
17091;SDS011;8661;45.700;4.880;2023-11-18T13:12:53;3.67;;;3.00;;
17091;SDS011;8661;45.700;4.880;2023-11-18T13:15:23;5.57;;;3.07;;
17091;SDS011;8661;45.700;4.880;2023-11-18T13:17:57;5.33;;;2.90;;
17091;SDS011;8661;45.700;4.880;2023-11-18T13:20:25;3.00;;;2.57;;
17091;SDS011;8661;45.700;4.880;2023-11-18T13:22:52;8.57;;;3.03;;
17091;SDS011;8661;45.700;4.880;2023-11-18T13:25:21;4.87;;;2.90;;
17091;SDS011;8661;45.700;4.880;2023-11-18T13:27:50;3.27;;;2.57;;
17091;SDS011;8661;45.700;4.880;2023-11-18T13:30:17;4.70;;;2.60;;
17091;SDS011;8661;45.700;4.880;2023-11-18T13:32:45;4.27;;;2.80;;
17091;SDS011;8661;45.700;4.880;2023-11-18T13:35:14;4.23;;;3.10;;
17091;SDS011;8661;45.700;4.880;2023-11-18T13:37:45;4.10;;;3.07;;
17091;SDS011;8661;45.700;4.880;2023-11-18T13:40:14;6.57;;;3.00;;
17091;SDS011;8661;45.700;4.880;2023-11-18T13:42:43;3.87;;;3.17;;
17091;SDS011;8661;45.700;4.880;2023-11-18T13:45:13;4.73;;;2.97;;
17091;SDS011;8661;45.700;4.880;2023-11-18T13:47:49;4.57;;;3.00;;
17091;SDS011;8661;45.700;4.880;2023-11-18T13:50:17;3.93;;;2.50;;
17091;SDS011;8661;45.700;4.880;2023-11-18T13:52:45;4.97;;;3.07;;
17091;SDS011;8661;45.700;4.880;2023-11-18T13:55:14;2.43;;;2.20;;
17091;SDS011;8661;45.700;4.880;2023-11-18T13:57:50;1.63;;;1.50;;
17091;SDS011;8661;45.700;4.880;2023-11-18T14:00:22;2.13;;;1.70;;
17091;SDS011;8661;45.700;4.880;2023-11-18T14:02:52;2.93;;;2.20;;
17091;SDS011;8661;45.700;4.880;2023-11-18T14:05:20;3.80;;;2.30;;
17091;SDS011;8661;45.700;4.880;2023-11-18T14:07:49;2.10;;;1.73;;
17091;SDS011;8661;45.700;4.880;2023-11-18T14:10:17;2.20;;;1.70;;
17091;SDS011;8661;45.700;4.880;2023-11-18T14:13:00;2.70;;;1.90;;
17091;SDS011;8661;45.700;4.880;2023-11-18T14:15:32;4.30;;;2.03;;
17091;SDS011;8661;45.700;4.880;2023-11-18T14:18:01;2.83;;;1.97;;
17091;SDS011;8661;45.700;4.880;2023-11-18T14:20:28;2.47;;;1.60;;
17091;SDS011;8661;45.700;4.880;2023-11-18T14:22:56;2.77;;;1.73;;
17091;SDS011;8661;45.700;4.880;2023-11-18T14:25:23;1.90;;;1.70;;
17091;SDS011;8661;45.700;4.880;2023-11-18T14:27:50;3.03;;;1.70;;
17091;SDS011;8661;45.700;4.880;2023-11-18T14:30:18;3.07;;;1.70;;
17091;SDS011;8661;45.700;4.880;2023-11-18T14:32:46;1.90;;;1.67;;
17091;SDS011;8661;45.700;4.880;2023-11-18T14:35:13;2.47;;;1.80;;
17091;SDS011;8661;45.700;4.880;2023-11-18T14:37:42;3.70;;;1.70;;
17091;SDS011;8661;45.700;4.880;2023-11-18T14:40:10;2.60;;;1.90;;
17091;SDS011;8661;45.700;4.880;2023-11-18T14:42:39;2.53;;;2.00;;
17091;SDS011;8661;45.700;4.880;2023-11-18T14:45:09;1.93;;;1.40;;
17091;SDS011;8661;45.700;4.880;2023-11-18T14:47:37;4.07;;;1.90;;
17091;SDS011;8661;45.700;4.880;2023-11-18T14:50:06;1.80;;;1.30;;
17091;SDS011;8661;45.700;4.880;2023-11-18T14:52:42;2.20;;;1.10;;
17091;SDS011;8661;45.700;4.880;2023-11-18T14:55:10;3.10;;;1.57;;
17091;SDS011;8661;45.700;4.880;2023-11-18T14:57:38;1.83;;;1.40;;
17091;SDS011;8661;45.700;4.880;2023-11-18T15:00:06;1.50;;;1.23;;
17091;SDS011;8661;45.700;4.880;2023-11-18T15:02:44;2.10;;;1.77;;
17091;SDS011;8661;45.700;4.880;2023-11-18T15:05:14;2.00;;;1.30;;
17091;SDS011;8661;45.700;4.880;2023-11-18T15:07:43;2.03;;;1.70;;
17091;SDS011;8661;45.700;4.880;2023-11-18T15:10:12;2.50;;;1.73;;
17091;SDS011;8661;45.700;4.880;2023-11-18T15:12:44;4.13;;;2.00;;